createdAt,value
2024-01-14T00:00:35.960Z,97322.63
2024-01-14T00:03:26.963Z,97319.33
2024-01-14T00:05:55.527Z,97316.52
2024-01-14T00:08:24.121Z,97315.25
2024-01-14T00:10:53.151Z,97309.43
2024-01-14T00:13:21.252Z,97306.35
2024-01-14T00:15:49.381Z,97310.83
2024-01-14T00:18:17.861Z,97302.23
2024-01-14T00:20:46.286Z,97295.14
2024-01-14T00:23:16.230Z,97302.98
2024-01-14T00:25:44.346Z,97305.96
2024-01-14T00:28:13.525Z,97308.80
2024-01-14T00:30:41.983Z,97306.87
2024-01-14T00:33:11.107Z,97303.98
2024-01-14T00:35:42.408Z,97299.33
2024-01-14T00:38:14.999Z,97303.49
2024-01-14T00:40:43.774Z,97303.82
2024-01-14T00:43:12.241Z,97299.80
2024-01-14T00:45:41.535Z,97296.98
2024-01-14T00:48:09.918Z,97299.46
2024-01-14T00:50:40.796Z,97296.37
2024-01-14T00:53:09.291Z,97291.70
2024-01-14T00:55:40.569Z,97285.80
2024-01-14T00:58:11.121Z,97286.95
2024-01-14T01:00:40.672Z,97279.33
2024-01-14T01:03:09.602Z,97271.05
2024-01-14T01:05:37.946Z,97267.36
2024-01-14T01:08:07.333Z,97268.88
2024-01-14T01:10:36.568Z,97268.40
2024-01-14T01:13:08.037Z,97264.52
2024-01-14T01:15:36.623Z,97255.31
2024-01-14T01:18:05.518Z,97251.88
2024-01-14T01:20:34.372Z,97251.02
2024-01-14T01:23:02.470Z,97246.39
2024-01-14T01:25:34.717Z,97234.42
2024-01-14T01:28:03.855Z,97227.41
2024-01-14T01:30:32.386Z,97225.94
2024-01-14T01:33:01.128Z,97224.93
2024-01-14T01:35:29.470Z,97226.70
2024-01-14T01:37:57.826Z,97221.73
2024-01-14T01:40:26.800Z,97213.55
2024-01-14T01:42:57.158Z,97208.34
2024-01-14T01:45:25.642Z,97197.89
2024-01-14T01:47:56.043Z,97199.01
2024-01-14T01:50:25.239Z,97194.75
2024-01-14T01:52:54.200Z,97191.20
2024-01-14T01:55:22.612Z,97189.72
2024-01-14T01:57:51.282Z,97186.96
2024-01-14T02:00:21.251Z,97182.13
2024-01-14T02:02:50.615Z,97177.48
2024-01-14T02:05:20.589Z,97180.01
2024-01-14T02:07:49.304Z,97183.22
2024-01-14T02:10:17.834Z,97183.24
2024-01-14T02:12:48.814Z,97177.41
2024-01-14T02:15:17.232Z,97171.67
2024-01-14T02:17:45.503Z,97163.65
2024-01-14T02:20:15.700Z,97154.09
2024-01-14T02:22:48.366Z,97149.88
2024-01-14T02:25:18.999Z,97144.64
2024-01-14T02:27:56.985Z,97140.29
2024-01-14T02:30:25.381Z,97147.98
2024-01-14T02:32:56.873Z,97150.12
2024-01-14T02:35:26.316Z,97148.92
2024-01-14T02:37:57.213Z,97151.16
2024-01-14T02:40:26.388Z,97147.39
2024-01-14T02:42:54.706Z,97142.19
2024-01-14T02:45:22.930Z,97144.19
2024-01-14T02:47:51.061Z,97143.59
2024-01-14T02:50:19.200Z,97144.39
2024-01-14T02:52:47.485Z,97141.52
2024-01-14T02:55:15.995Z,97136.16
2024-01-14T02:57:44.445Z,97132.67
2024-01-14T03:00:14.410Z,97133.06
2024-01-14T03:02:43.147Z,97125.63
2024-01-14T03:05:13.010Z,97119.68
2024-01-14T03:07:41.188Z,97118.05
2024-01-14T03:10:10.992Z,97117.64
2024-01-14T03:12:39.310Z,97119.00
2024-01-14T03:15:10.401Z,97115.17
2024-01-14T03:17:40.297Z,97106.95
2024-01-14T03:20:09.783Z,97100.08
2024-01-14T03:22:38.447Z,97091.13
2024-01-14T03:25:09.098Z,97084.13
2024-01-14T03:27:37.264Z,97081.85
2024-01-14T03:30:09.858Z,97075.27
2024-01-14T03:32:38.079Z,97076.17
2024-01-14T03:35:06.343Z,97074.23
2024-01-14T03:37:34.507Z,97076.81
2024-01-14T03:40:04.712Z,97070.73
2024-01-14T03:42:34.060Z,97063.57
2024-01-14T03:45:05.905Z,97062.54
2024-01-14T03:47:34.080Z,97060.48
2024-01-14T03:50:02.263Z,97061.95
2024-01-14T03:52:31.688Z,97065.52
2024-01-14T03:55:00.743Z,97063.51
2024-01-14T03:57:31.066Z,97058.48
2024-01-14T03:59:59.905Z,97053.63
2024-01-14T04:02:29.913Z,97043.67
2024-01-14T04:04:58.137Z,97044.64
2024-01-14T04:07:26.340Z,97041.91
2024-01-14T04:09:54.365Z,97046.19
2024-01-14T04:12:23.814Z,97042.44
2024-01-14T04:14:52.535Z,97042.84
2024-01-14T04:17:20.804Z,97032.35
2024-01-14T04:19:49.437Z,97028.22
2024-01-14T04:22:19.977Z,97024.84
2024-01-14T04:24:48.296Z,97025.73
2024-01-14T04:27:16.639Z,97026.03
2024-01-14T04:29:44.868Z,97021.04
2024-01-14T04:32:13.576Z,97027.36
2024-01-14T04:34:42.744Z,97030.27
2024-01-14T04:37:12.166Z,97030.89
2024-01-14T04:39:41.819Z,97029.21
2024-01-14T04:42:10.098Z,97026.20
2024-01-14T04:44:38.833Z,97024.04
2024-01-14T04:47:06.917Z,97022.27
2024-01-14T04:49:35.677Z,97015.25
2024-01-14T04:52:04.522Z,97011.73
2024-01-14T04:54:32.631Z,97013.91
2024-01-14T04:57:01.357Z,97010.27
2024-01-14T04:59:29.481Z,97016.30
2024-01-14T05:01:58.383Z,97011.98
2024-01-14T05:04:28.712Z,97006.98
2024-01-14T05:06:56.859Z,96999.65
2024-01-14T05:09:26.679Z,96999.73
2024-01-14T05:11:54.956Z,96997.23
2024-01-14T05:14:23.096Z,96998.90
2024-01-14T05:16:52.012Z,96993.46
2024-01-14T05:19:21.928Z,96991.75
2024-01-14T05:21:53.759Z,96982.27
2024-01-14T05:24:21.977Z,96975.66
2024-01-14T05:26:50.028Z,96974.53
2024-01-14T05:29:18.406Z,96978.55
2024-01-14T05:31:47.902Z,96976.59
2024-01-14T05:34:16.693Z,96967.00
2024-01-14T05:36:48.018Z,96975.68
2024-01-14T05:39:16.423Z,96967.02
2024-01-14T05:41:45.331Z,96959.25
2024-01-14T05:44:14.053Z,96956.03
2024-01-14T05:46:42.474Z,96954.66
2024-01-14T05:49:12.038Z,96956.39
2024-01-14T05:51:40.820Z,96951.64
2024-01-14T05:54:09.100Z,96952.34
2024-01-14T05:56:37.277Z,96949.58
2024-01-14T05:59:08.505Z,96948.27
2024-01-14T06:01:38.763Z,96950.58
2024-01-14T06:04:06.887Z,96953.31
2024-01-14T06:06:36.538Z,96950.63
2024-01-14T06:09:05.093Z,96947.91
2024-01-14T06:11:34.137Z,96940.92
2024-01-14T06:14:02.242Z,96944.48
2024-01-14T06:16:30.409Z,96943.33
2024-01-14T06:19:00.614Z,96944.89
2024-01-14T06:21:29.112Z,96944.27
2024-01-14T06:23:57.224Z,96936.70
2024-01-14T06:26:25.724Z,96939.28
2024-01-14T06:28:53.858Z,96936.92
2024-01-14T06:31:22.118Z,96934.04
2024-01-14T06:33:50.512Z,96933.19
2024-01-14T06:36:22.237Z,96942.21
2024-01-14T06:38:50.361Z,96946.07
2024-01-14T06:41:26.729Z,96946.44
2024-01-14T06:43:55.432Z,96945.34
2024-01-14T06:46:27.074Z,96943.63
2024-01-14T06:48:57.206Z,96944.67
2024-01-14T06:51:28.885Z,96949.49
2024-01-14T06:53:57.172Z,96944.44
2024-01-14T06:56:25.562Z,96940.09
2024-01-14T06:58:53.728Z,96946.54
2024-01-14T07:01:23.122Z,96939.64
2024-01-14T07:03:53.854Z,96937.43
2024-01-14T07:06:22.876Z,96926.27
2024-01-14T07:08:53.332Z,96924.11
2024-01-14T07:11:22.489Z,96922.57
2024-01-14T07:13:51.879Z,96911.02
2024-01-14T07:16:19.996Z,96905.77
2024-01-14T07:18:50.475Z,96913.44
2024-01-14T07:21:26.275Z,96920.27
2024-01-14T07:23:54.888Z,96921.38
2024-01-14T07:26:25.075Z,96918.59
2024-01-14T07:28:54.687Z,96916.04
2024-01-14T07:31:32.317Z,96906.70
2024-01-14T07:34:00.771Z,96907.77
2024-01-14T07:36:32.067Z,96912.16
2024-01-14T07:39:03.768Z,96911.30
2024-01-14T07:41:32.465Z,96911.75
2024-01-14T07:44:00.744Z,96907.02
2024-01-14T07:46:31.875Z,96903.18
2024-01-14T07:49:05.612Z,96907.12
2024-01-14T07:51:34.824Z,96904.92
2024-01-14T07:54:02.989Z,96911.36
2024-01-14T07:56:31.388Z,96906.77
2024-01-14T07:58:59.610Z,96904.33
2024-01-14T08:01:27.769Z,96901.45
2024-01-14T08:03:56.053Z,96908.91
2024-01-14T08:06:25.653Z,96909.36
2024-01-14T08:08:54.171Z,96903.46
2024-01-14T08:11:22.878Z,96893.70
2024-01-14T08:13:52.898Z,96906.96
2024-01-14T08:16:21.123Z,96912.36
2024-01-14T08:18:49.301Z,96914.42
2024-01-14T08:21:17.586Z,96915.71
2024-01-14T08:23:45.727Z,96918.52
2024-01-14T08:26:15.559Z,96915.66
2024-01-14T08:28:43.757Z,96919.13
2024-01-14T08:31:14.828Z,96921.51
2024-01-14T08:33:45.634Z,96923.56
2024-01-14T08:36:14.732Z,96923.50
2024-01-14T08:38:43.433Z,96915.99
2024-01-14T08:41:11.688Z,96913.36
2024-01-14T08:43:40.058Z,96915.56
2024-01-14T08:46:09.060Z,96913.05
2024-01-14T08:48:37.840Z,96907.69
2024-01-14T08:51:11.658Z,96908.52
2024-01-14T08:53:41.620Z,96917.10
2024-01-14T08:56:09.975Z,96917.27
2024-01-14T08:58:39.314Z,96912.64
2024-01-14T09:01:08.748Z,96908.31
2024-01-14T09:03:37.140Z,96912.02
2024-01-14T09:06:05.833Z,96903.66
2024-01-14T09:08:35.528Z,96901.46
2024-01-14T09:11:04.960Z,96898.45
2024-01-14T09:13:33.718Z,96903.70
2024-01-14T09:16:07.858Z,96905.02
2024-01-14T09:18:37.906Z,96902.27
2024-01-14T09:21:06.814Z,96899.54
2024-01-14T09:23:36.895Z,96896.85
2024-01-14T09:26:06.500Z,96896.05
2024-01-14T09:28:37.339Z,96894.91
2024-01-14T09:31:06.825Z,96898.56
2024-01-14T09:33:35.168Z,96897.56
2024-01-14T09:36:08.323Z,96895.46
2024-01-14T09:38:37.515Z,96892.28
2024-01-14T09:41:32.463Z,96893.16
2024-01-14T09:44:05.112Z,96883.98
2024-01-14T09:46:34.669Z,96885.90
2024-01-14T09:49:03.971Z,96879.73
2024-01-14T09:51:33.850Z,96875.61
2024-01-14T09:54:04.190Z,96877.10
2024-01-14T09:56:34.905Z,96875.23
2024-01-14T09:59:12.476Z,96874.00
2024-01-14T10:01:42.269Z,96868.41
2024-01-14T10:04:12.755Z,96866.46
2024-01-14T10:06:45.780Z,96867.92
2024-01-14T10:09:14.404Z,96867.69
2024-01-14T10:11:42.749Z,96867.45
2024-01-14T10:14:13.061Z,96868.36
2024-01-14T10:16:52.236Z,96876.94
2024-01-14T10:19:23.870Z,96870.69
2024-01-14T10:22:14.019Z,96862.11
2024-01-14T10:24:55.780Z,96862.59
2024-01-14T10:27:35.283Z,96858.13
2024-01-14T10:30:14.948Z,96861.39
2024-01-14T10:33:17.197Z,96851.20
2024-01-14T10:35:33.736Z,96845.13
2024-01-14T10:38:03.306Z,96841.97
2024-01-14T10:40:32.047Z,96836.58
2024-01-14T10:43:04.257Z,96836.14
2024-01-14T10:45:33.732Z,96836.34
2024-01-14T10:48:08.460Z,96840.70
2024-01-14T10:50:44.933Z,96841.93
2024-01-14T10:53:23.552Z,96839.27
2024-01-14T10:56:03.328Z,96835.23
2024-01-14T10:58:37.718Z,96832.68
2024-01-14T11:01:09.497Z,96828.86
2024-01-14T11:03:40.513Z,96825.41
2024-01-14T11:06:10.040Z,96830.08
2024-01-14T11:08:39.339Z,96828.04
2024-01-14T11:11:07.582Z,96824.39
2024-01-14T11:14:10.087Z,96818.52
2024-01-14T11:17:04.860Z,96821.23
2024-01-14T11:19:38.008Z,96813.94
2024-01-14T11:22:31.627Z,96815.10
2024-01-14T11:25:05.552Z,96810.80
2024-01-14T11:27:36.268Z,96807.83
2024-01-14T11:30:15.795Z,96807.98
2024-01-14T11:32:44.893Z,96803.91
2024-01-14T11:35:36.880Z,96809.01
2024-01-14T11:38:28.639Z,96803.73
2024-01-14T11:40:57.631Z,96798.52
2024-01-14T11:43:29.510Z,96801.52
2024-01-14T11:46:00.591Z,96799.64
2024-01-14T11:48:29.714Z,96795.44
2024-01-14T11:51:00.584Z,96794.41
2024-01-14T11:53:35.425Z,96794.46
2024-01-14T11:56:04.582Z,96791.40
2024-01-14T11:58:34.492Z,96786.34
2024-01-14T12:01:03.985Z,96776.64
2024-01-14T12:03:36.206Z,96775.58
2024-01-14T12:06:05.526Z,96773.03
2024-01-14T12:08:35.013Z,96767.28
2024-01-14T12:11:07.080Z,96768.13
2024-01-14T12:13:36.171Z,96765.03
2024-01-14T12:16:04.618Z,96765.39
2024-01-14T12:18:45.622Z,96761.33
2024-01-14T12:21:27.588Z,96761.87
2024-01-14T12:24:03.079Z,96763.47
2024-01-14T12:26:32.064Z,96763.58
2024-01-14T12:29:00.818Z,96766.59
2024-01-14T12:31:49.080Z,96763.20
2024-01-14T12:34:21.540Z,96762.63
2024-01-14T12:36:54.443Z,96764.07
2024-01-14T12:39:25.469Z,96766.66
2024-01-14T12:41:56.245Z,96766.84
2024-01-14T12:44:28.230Z,96765.67
2024-01-14T12:47:10.863Z,96767.61
2024-01-14T12:49:41.190Z,96773.73
2024-01-14T12:52:10.523Z,96777.05
2024-01-14T12:54:51.444Z,96778.81
2024-01-14T12:57:24.099Z,96778.19
2024-01-14T12:59:53.856Z,96778.38
2024-01-14T13:02:25.416Z,96778.80
2024-01-14T13:04:53.845Z,96780.64
2024-01-14T13:07:28.562Z,96786.52
2024-01-14T13:09:59.010Z,96789.48
2024-01-14T13:12:30.678Z,96785.17
2024-01-14T13:15:01.469Z,96784.50
2024-01-14T13:17:31.368Z,96784.52
2024-01-14T13:20:03.745Z,96783.81
2024-01-14T13:22:35.492Z,96785.41
2024-01-14T13:25:08.326Z,96782.11
2024-01-14T13:27:37.464Z,96780.63
2024-01-14T13:30:09.582Z,96777.30
2024-01-14T13:32:38.931Z,96781.02
2024-01-14T13:35:10.833Z,96780.06
2024-01-14T13:37:41.995Z,96780.90
2024-01-14T13:40:11.027Z,96779.41
2024-01-14T13:42:43.072Z,96781.45
2024-01-14T13:45:16.168Z,96787.27
2024-01-14T13:50:14.443Z,96789.21
2024-01-14T13:52:42.544Z,96791.77
2024-01-14T13:55:12.825Z,96786.09
2024-01-14T13:57:46.269Z,96786.60
2024-01-14T14:00:18.569Z,96786.39
2024-01-14T14:02:47.032Z,96786.10
2024-01-14T14:05:17.435Z,96787.52
2024-01-14T14:07:47.727Z,96793.83
2024-01-14T14:10:18.345Z,96788.55
2024-01-14T14:12:49.086Z,96789.63
2024-01-14T14:15:17.859Z,96790.11
2024-01-14T14:17:52.334Z,96787.48
2024-01-14T14:20:23.230Z,96786.81
2024-01-14T14:22:52.048Z,96782.33
2024-01-14T14:25:25.295Z,96786.41
2024-01-14T14:27:55.460Z,96786.08
2024-01-14T14:30:27.756Z,96789.07
2024-01-14T14:33:01.768Z,96787.20
2024-01-14T14:35:35.299Z,96783.52
2024-01-14T14:38:05.734Z,96780.93
2024-01-14T14:40:33.886Z,96777.42
2024-01-14T14:43:05.798Z,96775.96
2024-01-14T14:45:34.501Z,96776.13
2024-01-14T14:48:03.154Z,96776.92
2024-01-14T14:50:32.601Z,96780.30
2024-01-14T14:53:04.902Z,96780.23
2024-01-14T14:55:35.619Z,96786.63
2024-01-14T14:58:05.761Z,96784.81
2024-01-14T15:00:37.115Z,96788.14
2024-01-14T15:03:06.086Z,96790.64
2024-01-14T15:05:37.533Z,96796.13
2024-01-14T15:08:09.339Z,96798.48
2024-01-14T15:10:49.454Z,96793.80
2024-01-14T15:13:25.843Z,96785.67
2024-01-14T15:15:56.587Z,96783.42
2024-01-14T15:18:29.081Z,96777.95
2024-01-14T15:20:58.757Z,96783.63
2024-01-14T15:23:28.405Z,96794.88
2024-01-14T15:25:59.404Z,96804.59
2024-01-14T15:28:37.958Z,96810.33
2024-01-14T15:31:10.353Z,96806.80
2024-01-14T15:33:46.374Z,96813.92
2024-01-14T15:36:19.202Z,96816.80
2024-01-14T15:38:50.438Z,96812.73
2024-01-14T15:41:19.124Z,96813.48
2024-01-14T15:43:48.774Z,96822.07
2024-01-14T15:46:17.699Z,96824.48
2024-01-14T15:48:47.687Z,96824.65
2024-01-14T15:51:23.349Z,96828.53
2024-01-14T15:53:58.064Z,96831.05
2024-01-14T15:56:30.489Z,96827.56
2024-01-14T15:58:59.116Z,96829.13
2024-01-14T16:01:31.269Z,96827.05
2024-01-14T16:04:01.250Z,96825.10
2024-01-14T16:06:30.279Z,96828.11
2024-01-14T16:08:59.968Z,96828.08
2024-01-14T16:11:34.300Z,96827.47
2024-01-14T16:14:03.721Z,96828.77
2024-01-14T16:16:35.842Z,96826.93
2024-01-14T16:19:09.076Z,96827.21
2024-01-14T16:21:43.145Z,96830.98
2024-01-14T16:24:11.618Z,96829.99
2024-01-14T16:26:40.889Z,96826.15
2024-01-14T16:29:09.346Z,96822.30
2024-01-14T16:31:38.129Z,96820.35
2024-01-14T16:34:07.240Z,96821.91
2024-01-14T16:36:39.572Z,96824.90
2024-01-14T16:39:11.103Z,96822.45
2024-01-14T16:41:40.569Z,96825.27
2024-01-14T16:44:12.164Z,96824.27
2024-01-14T16:46:42.214Z,96819.20
2024-01-14T16:49:11.619Z,96816.86
2024-01-14T16:51:40.459Z,96813.20
2024-01-14T16:54:11.785Z,96813.51
2024-01-14T16:56:46.398Z,96811.19
2024-01-14T16:59:18.110Z,96814.39
2024-01-14T17:01:59.531Z,96812.07
2024-01-14T17:04:31.365Z,96808.58
2024-01-14T17:07:00.146Z,96810.27
2024-01-14T17:09:28.665Z,96814.27
2024-01-14T17:11:59.369Z,96816.74
2024-01-14T17:14:28.688Z,96817.95
2024-01-14T17:17:01.745Z,96819.77
2024-01-14T17:19:37.904Z,96819.72
2024-01-14T17:22:11.691Z,96817.56
2024-01-14T17:24:52.111Z,96822.73
2024-01-14T17:27:35.518Z,96821.50
2024-01-14T17:30:07.941Z,96822.10
2024-01-14T17:32:37.694Z,96822.08
2024-01-14T17:35:10.804Z,96823.18
2024-01-14T17:37:46.829Z,96816.41
2024-01-14T17:40:15.582Z,96816.08
2024-01-14T17:42:51.367Z,96811.12
2024-01-14T17:45:24.343Z,96812.60
2024-01-14T17:48:03.625Z,96806.70
2024-01-14T17:50:33.909Z,96809.77
2024-01-14T17:53:11.807Z,96810.09
2024-01-14T17:55:47.099Z,96808.06
2024-01-14T17:58:16.344Z,96810.85
2024-01-14T18:00:46.560Z,96813.41
2024-01-14T18:03:15.694Z,96816.89
2024-01-14T18:05:44.226Z,96818.23
2024-01-14T18:08:13.000Z,96820.56
2024-01-14T18:10:50.546Z,96821.21
2024-01-14T18:13:29.536Z,96825.64
2024-01-14T18:15:57.981Z,96825.98
2024-01-14T18:18:36.948Z,96828.17
2024-01-14T18:21:12.367Z,96825.13
2024-01-14T18:23:49.086Z,96822.96
2024-01-14T18:26:31.516Z,96819.85
2024-01-14T18:29:11.309Z,96823.30
2024-01-14T18:31:44.356Z,96822.89
2024-01-14T18:34:23.161Z,96817.02
2024-01-14T18:36:55.126Z,96812.73
2024-01-14T18:39:29.480Z,96809.48
2024-01-14T18:42:06.275Z,96815.02
2024-01-14T18:44:35.890Z,96811.67
2024-01-14T18:47:14.279Z,96809.70
2024-01-14T18:52:38.364Z,96807.76
2024-01-14T18:55:17.103Z,96805.81
2024-01-14T18:57:50.104Z,96809.84
2024-01-14T19:00:23.977Z,96814.06
2024-01-14T19:03:01.399Z,96814.16
2024-01-14T19:05:48.669Z,96813.70
2024-01-14T19:08:31.976Z,96817.92
2024-01-14T19:11:06.538Z,96817.59
2024-01-14T19:13:38.562Z,96815.11
2024-01-14T19:16:15.348Z,96813.80
2024-01-14T19:18:50.166Z,96818.46
2024-01-14T19:21:26.073Z,96824.00
2024-01-14T19:23:56.659Z,96821.85
2024-01-14T19:26:28.166Z,96817.95
2024-01-14T19:28:58.268Z,96820.73
2024-01-14T19:31:37.194Z,96821.95
2024-01-14T19:37:02.697Z,96820.23
2024-01-14T19:39:33.407Z,96816.20
2024-01-14T19:42:01.776Z,96815.15
2024-01-14T19:44:37.937Z,96814.17
2024-01-14T19:47:13.151Z,96812.17
2024-01-14T19:50:01.564Z,96810.39
2024-01-14T19:52:45.288Z,96811.89
2024-01-14T19:55:18.207Z,96803.36
2024-01-14T19:57:49.458Z,96807.34
2024-01-14T20:00:19.623Z,96807.44
2024-01-14T20:02:54.231Z,96805.70
2024-01-14T20:05:34.573Z,96805.30
2024-01-14T20:08:05.725Z,96807.14
2024-01-14T20:10:39.780Z,96804.55
2024-01-14T20:13:12.346Z,96803.24
2024-01-14T20:15:47.749Z,96800.60
2024-01-14T20:18:16.594Z,96798.40
2024-01-14T20:20:47.563Z,96795.36
2024-01-14T20:23:19.003Z,96794.35
2024-01-14T20:25:58.199Z,96795.46
2024-01-14T20:28:34.587Z,96791.77
2024-01-14T20:31:07.074Z,96792.98
2024-01-14T20:33:41.794Z,96789.40
2024-01-14T20:36:13.489Z,96791.17
2024-01-14T20:38:45.011Z,96787.91
2024-01-14T20:41:13.761Z,96787.39
2024-01-14T20:43:48.920Z,96781.64
2024-01-14T20:46:17.507Z,96782.73
2024-01-14T20:48:49.142Z,96786.88
2024-01-14T20:51:25.567Z,96787.45
2024-01-14T20:54:00.982Z,96784.73
2024-01-14T20:56:31.732Z,96783.72
2024-01-14T20:59:12.386Z,96772.52
2024-01-14T21:01:40.910Z,96771.40
2024-01-14T21:04:09.279Z,96765.92
2024-01-14T21:06:37.714Z,96767.09
2024-01-14T21:09:11.591Z,96767.09
2024-01-14T21:11:39.707Z,96762.46
2024-01-14T21:14:08.319Z,96763.43
2024-01-14T21:16:36.480Z,96765.97
2024-01-14T21:19:05.290Z,96767.27
2024-01-14T21:21:33.683Z,96764.11
2024-01-14T21:24:04.916Z,96766.58
2024-01-14T21:26:33.088Z,96766.69
2024-01-14T21:29:04.887Z,96770.71
2024-01-14T21:31:33.186Z,96775.86
2024-01-14T21:34:02.853Z,96776.75
2024-01-14T21:36:31.309Z,96772.41
2024-01-14T21:39:01.494Z,96774.95
2024-01-14T21:41:30.360Z,96772.75
2024-01-14T21:43:59.674Z,96769.55
2024-01-14T21:46:32.283Z,96762.89
2024-01-14T21:49:00.485Z,96762.23
2024-01-14T21:51:29.576Z,96760.77
2024-01-14T21:53:59.274Z,96761.64
2024-01-14T21:56:27.600Z,96767.85
2024-01-14T21:58:55.754Z,96770.83
2024-01-14T22:01:24.134Z,96763.98
2024-01-14T22:03:52.366Z,96760.38
2024-01-14T22:06:20.575Z,96763.10
2024-01-14T22:08:48.767Z,96757.25
2024-01-14T22:11:17.142Z,96752.88
2024-01-14T22:13:48.226Z,96751.16
2024-01-14T22:16:16.415Z,96750.09
2024-01-14T22:18:45.029Z,96748.89
2024-01-14T22:21:13.361Z,96745.60
2024-01-14T22:23:42.620Z,96747.11
2024-01-14T22:26:12.024Z,96746.02
2024-01-14T22:28:40.896Z,96744.42
2024-01-14T22:31:09.490Z,96738.56
2024-01-14T22:33:37.822Z,96733.29
2024-01-14T22:36:07.458Z,96729.66
2024-01-14T22:38:40.710Z,96723.34
2024-01-14T22:41:15.029Z,96721.83
2024-01-14T22:43:46.275Z,96717.31
2024-01-14T22:46:20.439Z,96719.33
2024-01-14T22:48:48.750Z,96717.98
2024-01-14T22:51:19.108Z,96716.98
2024-01-14T22:53:48.978Z,96714.95
2024-01-14T22:56:18.560Z,96708.66
2024-01-14T22:58:47.393Z,96700.63
2024-01-14T23:01:15.539Z,96696.20
2024-01-14T23:03:44.389Z,96695.42
2024-01-14T23:06:13.744Z,96695.13
2024-01-14T23:08:42.201Z,96688.40
2024-01-14T23:11:11.430Z,96688.22
2024-01-14T23:13:40.090Z,96691.45
2024-01-14T23:16:09.911Z,96686.57
2024-01-14T23:18:38.211Z,96683.28
2024-01-14T23:21:09.441Z,96684.09
2024-01-14T23:23:37.848Z,96684.52
2024-01-14T23:26:07.236Z,96685.59
2024-01-14T23:28:35.377Z,96689.39
2024-01-14T23:31:03.770Z,96683.98
2024-01-14T23:33:32.236Z,96679.70
2024-01-14T23:36:00.492Z,96677.16
2024-01-14T23:38:29.060Z,96676.22
2024-01-14T23:40:57.299Z,96676.20
2024-01-14T23:43:25.794Z,96681.02
2024-01-14T23:45:53.963Z,96678.76
2024-01-14T23:48:22.238Z,96670.62
2024-01-14T23:50:50.679Z,96668.15
2024-01-14T23:53:20.008Z,96665.09
2024-01-14T23:55:48.164Z,96661.83
2024-01-14T23:58:17.859Z,96661.35
